createdAt,value
2022-08-18T00:01:11.328Z,7.22
2022-08-18T00:06:16.030Z,4.95
2022-08-18T00:11:17.705Z,7.38
2022-08-18T00:16:19.342Z,5.22
2022-08-18T00:21:21.015Z,5.38
2022-08-18T00:26:22.625Z,4.97
2022-08-18T00:31:24.679Z,6.32
2022-08-18T00:36:27.165Z,5.78
2022-08-18T00:41:30.056Z,4.88
2022-08-18T00:46:34.086Z,6.78
2022-08-18T00:51:37.091Z,7.55
2022-08-18T00:56:45.346Z,6.93
2022-08-18T01:01:50.054Z,8.88
2022-08-18T01:07:11.393Z,7.25
2022-08-18T01:12:45.009Z,7.45
2022-08-18T01:17:53.861Z,6.22
2022-08-18T01:23:13.066Z,6.13
2022-08-18T01:28:18.459Z,5.60
2022-08-18T01:33:20.174Z,5.93
2022-08-18T01:38:22.867Z,9.55
2022-08-18T01:43:25.053Z,7.70
2022-08-18T01:48:28.447Z,6.05
2022-08-18T01:53:30.234Z,7.78
2022-08-18T01:58:36.340Z,10.77
2022-08-18T02:03:42.995Z,8.85
2022-08-18T02:08:45.922Z,6.18
2022-08-18T02:13:55.051Z,8.05
2022-08-18T02:18:56.928Z,9.15
2022-08-18T02:23:58.719Z,7.50
2022-08-18T02:29:07.670Z,6.85
2022-08-18T02:34:36.467Z,7.22
2022-08-18T02:39:38.325Z,7.25
2022-08-18T02:44:40.332Z,7.22
2022-08-18T02:49:42.046Z,8.05
2022-08-18T02:54:43.870Z,7.50
2022-08-18T02:59:47.479Z,8.68
2022-08-18T03:04:51.406Z,10.82
2022-08-18T03:09:53.085Z,9.15
2022-08-18T03:14:55.126Z,7.97
2022-08-18T03:19:57.766Z,7.57
2022-08-18T03:24:59.547Z,9.20
2022-08-18T03:30:02.761Z,8.48
2022-08-18T03:35:04.825Z,7.10
2022-08-18T03:40:07.407Z,7.53
2022-08-18T03:45:12.658Z,6.78
2022-08-18T03:50:19.879Z,9.50
2022-08-18T03:55:21.736Z,8.18
2022-08-18T04:00:23.751Z,8.13
2022-08-18T04:05:26.860Z,8.23
2022-08-18T04:10:28.629Z,8.38
2022-08-18T04:15:30.310Z,7.95
2022-08-18T04:20:35.380Z,7.68
2022-08-18T04:25:37.086Z,8.10
2022-08-18T04:30:38.643Z,10.23
2022-08-18T04:35:40.365Z,7.93
2022-08-18T04:40:42.546Z,8.73
2022-08-18T04:45:45.970Z,8.02
2022-08-18T04:50:48.604Z,7.63
2022-08-18T04:55:52.097Z,7.15
2022-08-18T05:01:01.051Z,8.02
2022-08-18T05:06:04.840Z,8.38
2022-08-18T05:11:06.943Z,9.10
2022-08-18T05:16:18.039Z,5.80
2022-08-18T05:21:22.477Z,10.85
2022-08-18T05:26:26.817Z,6.35
2022-08-18T05:31:29.635Z,4.00
2022-08-18T05:36:52.074Z,2.75
2022-08-18T05:42:12.576Z,4.50
2022-08-18T05:47:16.649Z,4.10
2022-08-18T05:52:26.282Z,5.10
2022-08-18T05:57:33.567Z,3.92
2022-08-18T06:02:38.655Z,5.45
2022-08-18T06:07:51.240Z,3.83
2022-08-18T06:12:57.559Z,4.07
2022-08-18T06:18:02.274Z,5.93
2022-08-18T06:23:29.381Z,4.07
2022-08-18T06:29:00.922Z,4.35
2022-08-18T06:34:23.584Z,6.90
2022-08-18T06:39:39.371Z,6.72
2022-08-18T06:44:46.915Z,6.80
2022-08-18T06:50:18.760Z,5.05
2022-08-18T06:55:45.940Z,4.90
2022-08-18T07:00:50.806Z,7.05
2022-08-18T07:06:03.944Z,6.40
2022-08-18T07:11:17.757Z,11.10
2022-08-18T07:16:40.278Z,4.00
2022-08-18T07:21:44.934Z,2.28
2022-08-18T07:27:07.405Z,2.03
2022-08-18T07:32:21.813Z,1.92
2022-08-18T07:37:50.423Z,2.22
2022-08-18T07:43:23.985Z,2.38
2022-08-18T07:48:39.928Z,1.85
2022-08-18T07:54:05.315Z,1.70
2022-08-18T07:59:39.113Z,1.88
2022-08-18T08:04:56.882Z,2.00
2022-08-18T08:10:23.917Z,2.25
2022-08-18T08:15:49.577Z,3.03
2022-08-18T08:20:58.187Z,1.70
2022-08-18T08:26:12.021Z,2.00
2022-08-18T08:31:38.013Z,1.73
2022-08-18T08:36:42.062Z,3.83
2022-08-18T08:42:30.919Z,3.55
2022-08-18T08:48:06.646Z,2.47
2022-08-18T08:53:25.756Z,2.17
2022-08-18T08:58:40.545Z,2.40
2022-08-18T09:03:49.137Z,5.53
2022-08-18T09:09:07.902Z,2.30
2022-08-18T09:14:46.571Z,6.07
2022-08-18T09:20:09.363Z,2.83
2022-08-18T09:25:32.887Z,3.63
2022-08-18T09:30:45.176Z,2.28
2022-08-18T10:48:40.322Z,13.00
2022-08-18T10:53:58.551Z,8.68
2022-08-18T11:12:57.856Z,3.73
2022-08-18T11:31:10.845Z,2.78
2022-08-18T11:36:16.299Z,5.28
2022-08-18T11:41:24.328Z,3.78
2022-08-18T11:47:03.547Z,4.13
2022-08-18T11:52:28.978Z,2.83
2022-08-18T11:58:33.290Z,2.95
2022-08-18T12:03:44.598Z,4.50
2022-08-18T12:08:58.633Z,2.53
2022-08-18T12:14:30.661Z,4.10
2022-08-18T12:19:36.119Z,4.60
2022-08-18T12:24:40.388Z,2.70
2022-08-18T12:29:43.568Z,5.40
2022-08-18T12:34:46.934Z,3.25
